Rhome, Texas
Current Conditions -  °F | °C
As of 4:53 AM on Friday 31 Oct 2014 (Local Time) from KAFW Reporting Station
Clear Clear  
Wind Chill: 56°   Ceiling: Unl
Heat Index: 56°   Visibility: 10mi
Dew Point: 38°   Wind: 12mph
Humidity: 51%   Direction: 350°N
Pressure: 30.21"   Gusts: NA
Location:  33.05°N, 97.47°W
Report Text: KAFW 310953Z 35010KT 10SM CLR 13/03 A3021 RMK AO2 SLP224 T01330033
Loading
Personal Weather Stations






























Interactive Weather Map
Tropical Storm Tracking
New forecast layout! Learn more

10-Day Weather Forecast

Advertisements
Track Severe Weather on mobile